createdAt,value
2019-01-14T00:03:36.808Z,66.67
2019-01-14T00:08:40.039Z,67.28
2019-01-14T00:13:43.425Z,68.06
2019-01-14T00:18:46.643Z,68.19
2019-01-14T00:23:49.856Z,67.98
2019-01-14T00:28:53.254Z,67.01
2019-01-14T00:33:56.459Z,66.87
2019-01-14T00:38:59.739Z,67.52
2019-01-14T00:44:02.963Z,68.07
2019-01-14T00:49:06.218Z,67.72
2019-01-14T00:54:10.663Z,67.77
2019-01-14T00:59:12.917Z,67.45
2019-01-14T01:04:16.164Z,67.09
2019-01-14T01:09:19.426Z,66.15
2019-01-14T01:14:22.767Z,66.75
2019-01-14T01:19:26.028Z,66.80
2019-01-14T01:24:29.305Z,66.88
2019-01-14T01:29:32.495Z,66.73
2019-01-14T01:34:35.770Z,67.01
2019-01-14T01:39:39.005Z,66.81
2019-01-14T01:44:42.245Z,66.76
2019-01-14T01:49:45.495Z,66.61
2019-01-14T01:54:48.844Z,67.00
2019-01-14T01:59:52.065Z,66.78
2019-01-14T02:04:55.262Z,66.83
2019-01-14T02:09:58.470Z,66.89
2019-01-14T02:15:01.672Z,66.33
2019-01-14T02:20:05.488Z,66.35
2019-01-14T02:25:09.021Z,65.79
2019-01-14T02:30:15.940Z,65.92
2019-01-14T02:35:19.166Z,66.07
2019-01-14T02:40:22.831Z,65.70
2019-01-14T02:45:26.049Z,65.99
2019-01-14T02:50:29.268Z,65.83
2019-01-14T02:55:32.496Z,66.99
2019-01-14T03:00:35.726Z,67.17
2019-01-14T03:05:38.942Z,67.32
2019-01-14T03:10:42.146Z,67.05
2019-01-14T03:15:45.432Z,67.04
2019-01-14T03:20:48.746Z,67.00
2019-01-14T03:25:58.004Z,66.58
2019-01-14T03:30:55.522Z,66.54
2019-01-14T03:35:58.744Z,66.12
2019-01-14T03:41:02.155Z,65.78
2019-01-14T03:46:05.376Z,65.73
2019-01-14T03:51:08.597Z,66.15
2019-01-14T03:56:11.806Z,65.61
2019-01-14T04:01:15.027Z,66.00
2019-01-14T04:06:18.409Z,65.55
2019-01-14T04:11:21.611Z,65.91
2019-01-14T04:16:24.842Z,65.35
2019-01-14T04:21:28.071Z,65.42
2019-01-14T04:26:31.314Z,65.41
2019-01-14T04:31:34.535Z,65.65
2019-01-14T04:36:37.739Z,65.37
2019-01-14T04:41:40.948Z,65.18
2019-01-14T04:46:44.274Z,64.93
2019-01-14T04:51:47.588Z,64.31
2019-01-14T04:56:50.827Z,64.30
2019-01-14T05:01:55.142Z,63.96
2019-01-14T05:06:58.410Z,63.65
2019-01-14T05:12:01.863Z,62.13
2019-01-14T05:17:05.119Z,61.39
2019-01-14T05:22:08.394Z,62.07
2019-01-14T05:27:11.762Z,61.74
2019-01-14T05:32:15.138Z,60.84
2019-01-14T05:37:18.504Z,61.33
2019-01-14T05:42:21.933Z,60.77
2019-01-14T05:47:25.237Z,62.53
2019-01-14T05:52:28.457Z,62.70
2019-01-14T05:57:31.728Z,63.12
2019-01-14T06:02:35.133Z,63.12
2019-01-14T06:07:44.814Z,63.07
2019-01-14T06:12:41.842Z,63.16
2019-01-14T06:17:45.072Z,63.27
2019-01-14T06:22:48.418Z,63.23
2019-01-14T06:27:51.787Z,64.04
2019-01-14T06:32:55.060Z,63.98
2019-01-14T06:37:58.280Z,64.22
2019-01-14T06:43:01.477Z,64.28
2019-01-14T06:48:05.105Z,64.32
2019-01-14T06:53:08.369Z,64.18
2019-01-14T06:58:11.654Z,63.78
2019-01-14T07:03:15.072Z,63.53
2019-01-14T07:08:18.354Z,63.88
2019-01-14T07:13:21.710Z,63.95
2019-01-14T07:18:25.063Z,63.68
2019-01-14T07:23:28.378Z,63.51
2019-01-14T07:28:31.667Z,62.73
2019-01-14T07:33:34.965Z,61.73
2019-01-14T07:38:38.346Z,61.01
2019-01-14T07:43:41.545Z,60.31
2019-01-14T07:48:44.751Z,60.25
2019-01-14T07:53:48.085Z,60.48
2019-01-14T07:58:51.283Z,60.45
2019-01-14T08:03:54.758Z,60.41
2019-01-14T08:08:57.981Z,60.56
2019-01-14T08:14:01.273Z,60.45
2019-01-14T08:19:04.647Z,60.46
2019-01-14T08:24:07.851Z,60.93
2019-01-14T08:29:11.081Z,60.36
2019-01-14T08:34:14.295Z,60.01
2019-01-14T08:39:17.627Z,59.65
2019-01-14T08:44:22.768Z,59.06
2019-01-14T08:49:26.073Z,58.75
2019-01-14T08:54:29.289Z,57.03
2019-01-14T08:59:32.707Z,57.68
2019-01-14T09:04:35.930Z,56.92
2019-01-14T09:09:39.222Z,57.07
2019-01-14T09:14:42.441Z,56.02
2019-01-14T09:19:45.680Z,56.64
2019-01-14T09:24:49.076Z,56.70
2019-01-14T09:29:52.499Z,55.84
2019-01-14T09:34:55.823Z,55.68
2019-01-14T09:39:59.028Z,55.75
2019-01-14T09:45:02.343Z,56.36
2019-01-14T09:50:06.811Z,57.65
2019-01-14T09:55:11.903Z,58.57
2019-01-14T10:00:15.311Z,58.67
2019-01-14T10:05:19.463Z,58.32
2019-01-14T10:10:22.739Z,57.52
2019-01-14T10:15:26.122Z,58.27
2019-01-14T10:20:29.483Z,59.55
2019-01-14T10:25:34.375Z,58.80
2019-01-14T10:30:37.711Z,59.40
2019-01-14T10:35:40.931Z,60.42
2019-01-14T10:40:44.243Z,60.08
2019-01-14T10:45:47.545Z,60.44
2019-01-14T10:50:50.779Z,59.02
2019-01-14T10:55:54.001Z,57.32
2019-01-14T11:00:57.233Z,57.50
2019-01-14T11:06:00.500Z,56.52
2019-01-14T11:11:03.721Z,55.69
2019-01-14T11:16:07.036Z,54.75
2019-01-14T11:21:14.361Z,53.79
2019-01-14T11:26:13.575Z,53.89
2019-01-14T11:31:17.899Z,52.18
2019-01-14T11:36:21.287Z,52.34
2019-01-14T11:41:25.544Z,51.74
2019-01-14T11:46:28.742Z,51.79
2019-01-14T11:51:32.163Z,50.97
2019-01-14T11:56:35.363Z,51.06
2019-01-14T12:01:38.567Z,50.79
2019-01-14T12:06:41.935Z,50.59
2019-01-14T12:11:45.302Z,51.01
2019-01-14T12:16:48.508Z,52.02
2019-01-14T12:21:51.734Z,51.75
2019-01-14T12:26:55.037Z,52.88
2019-01-14T12:31:58.443Z,53.33
2019-01-14T12:37:01.755Z,53.52
2019-01-14T12:42:04.967Z,54.50
2019-01-14T12:47:08.396Z,54.79
2019-01-14T12:52:11.625Z,54.37
2019-01-14T12:57:14.858Z,55.06
2019-01-14T13:02:18.184Z,54.33
2019-01-14T13:07:21.418Z,55.31
2019-01-14T13:12:24.630Z,55.95
2019-01-14T13:17:27.954Z,56.79
2019-01-14T13:22:31.207Z,57.86
2019-01-14T13:27:34.551Z,62.75
2019-01-14T13:32:37.858Z,63.89
2019-01-14T13:37:41.059Z,63.63
2019-01-14T13:42:44.387Z,64.77
2019-01-14T13:47:47.746Z,64.38
2019-01-14T13:52:51.007Z,63.64
2019-01-14T13:57:54.335Z,62.72
2019-01-14T14:02:57.572Z,61.98
2019-01-14T14:08:00.847Z,61.08
2019-01-14T14:13:04.144Z,60.66
2019-01-14T14:18:07.452Z,59.85
2019-01-14T14:23:11.010Z,58.82
2019-01-14T14:28:14.312Z,58.89
2019-01-14T14:33:17.631Z,55.86
2019-01-14T14:38:20.936Z,54.35
2019-01-14T14:43:24.285Z,52.36
2019-01-14T14:48:27.723Z,54.12
2019-01-14T14:53:31.161Z,54.45
2019-01-14T14:58:34.379Z,54.32
2019-01-14T15:03:37.644Z,55.46
2019-01-14T15:08:40.956Z,54.33
2019-01-14T15:13:44.475Z,54.33
2019-01-14T15:18:47.974Z,54.36
2019-01-14T15:23:51.226Z,54.31
2019-01-14T15:28:54.832Z,54.00
2019-01-14T15:33:59.245Z,53.22
2019-01-14T15:39:02.591Z,52.91
2019-01-14T15:44:06.147Z,54.02
2019-01-14T15:49:09.477Z,53.63
2019-01-14T15:54:12.752Z,53.55
2019-01-14T15:59:16.132Z,53.12
2019-01-14T16:04:19.377Z,53.05
2019-01-14T16:09:22.787Z,53.80
2019-01-14T16:14:26.036Z,54.17
2019-01-14T16:19:29.352Z,54.91
2019-01-14T16:24:32.700Z,55.38
2019-01-14T16:29:36.096Z,55.20
2019-01-14T16:34:39.408Z,54.72
2019-01-14T16:39:42.714Z,54.62
2019-01-14T16:44:47.167Z,54.95
2019-01-14T16:49:50.479Z,55.42
2019-01-14T16:54:53.780Z,56.94
2019-01-14T16:59:57.092Z,58.09
2019-01-14T17:05:00.426Z,58.47
2019-01-14T17:10:05.946Z,58.22
2019-01-14T17:15:09.433Z,58.31
2019-01-14T17:20:15.713Z,58.76
2019-01-14T17:25:19.048Z,57.40
2019-01-14T17:30:22.445Z,57.20
2019-01-14T17:35:25.766Z,56.11
2019-01-14T17:40:32.742Z,55.75
2019-01-14T17:45:32.419Z,55.72
2019-01-14T17:50:36.053Z,55.33
2019-01-14T17:55:39.192Z,55.92
2019-01-14T18:00:42.507Z,55.46
2019-01-14T18:05:45.919Z,55.17
2019-01-14T18:10:49.410Z,55.92
2019-01-14T18:15:52.727Z,54.71
2019-01-14T18:20:56.269Z,55.57
2019-01-14T18:25:59.774Z,55.53
2019-01-14T18:31:03.287Z,55.25
2019-01-14T18:36:06.638Z,54.39
2019-01-14T18:41:10.017Z,54.25
2019-01-14T18:46:13.363Z,53.82
2019-01-14T18:51:16.841Z,53.37
2019-01-14T18:56:20.170Z,53.54
2019-01-14T19:01:23.540Z,52.67
2019-01-14T19:06:26.963Z,52.88
2019-01-14T19:11:30.483Z,53.53
2019-01-14T19:16:34.011Z,53.13
2019-01-14T19:21:37.411Z,53.81
2019-01-14T19:26:40.840Z,55.18
2019-01-14T19:31:44.256Z,57.00
2019-01-14T19:36:47.643Z,57.76
2019-01-14T19:41:51.185Z,58.85
2019-01-14T19:46:54.507Z,58.17
2019-01-14T19:51:57.886Z,57.43
2019-01-14T19:57:01.195Z,57.47
2019-01-14T20:02:04.831Z,57.62
2019-01-14T20:07:11.175Z,57.06
2019-01-14T20:12:11.771Z,57.69
2019-01-14T20:17:15.159Z,58.64
2019-01-14T20:22:18.472Z,60.00
2019-01-14T20:27:21.789Z,59.55
2019-01-14T20:32:25.192Z,59.97
2019-01-14T20:37:28.719Z,60.04
2019-01-14T20:42:32.565Z,59.21
2019-01-14T20:47:36.257Z,59.01
2019-01-14T20:52:39.544Z,59.67
2019-01-14T20:57:44.206Z,59.14
2019-01-14T21:02:47.716Z,58.31
2019-01-14T21:07:51.088Z,58.16
2019-01-14T21:12:56.547Z,57.54
2019-01-14T21:18:00.383Z,58.25
2019-01-14T21:23:04.296Z,57.53
2019-01-14T21:28:07.703Z,57.14
2019-01-14T21:33:11.231Z,56.71
2019-01-14T21:38:15.066Z,57.20
2019-01-14T21:43:18.621Z,56.22
2019-01-14T21:48:21.994Z,55.85
2019-01-14T21:53:25.747Z,55.96
2019-01-14T21:58:28.962Z,56.69
2019-01-14T22:03:32.669Z,58.87
2019-01-14T22:08:36.207Z,61.79
2019-01-14T22:13:39.539Z,66.51
2019-01-14T22:18:42.960Z,66.09
2019-01-14T22:23:46.273Z,65.78
2019-01-14T22:28:49.655Z,66.06
2019-01-14T22:33:53.287Z,65.52
2019-01-14T22:38:57.015Z,65.17
2019-01-14T22:44:00.423Z,65.28
2019-01-14T22:49:04.270Z,65.34
2019-01-14T22:54:07.775Z,65.31
2019-01-14T22:59:11.051Z,65.19
2019-01-14T23:04:14.652Z,63.03
2019-01-14T23:09:17.923Z,61.84
2019-01-14T23:14:21.199Z,62.45
2019-01-14T23:19:24.469Z,62.06
2019-01-14T23:24:27.724Z,61.58
2019-01-14T23:29:31.138Z,61.97
2019-01-14T23:34:34.403Z,61.19
2019-01-14T23:39:37.670Z,61.51
2019-01-14T23:44:40.937Z,61.74
2019-01-14T23:49:44.226Z,62.19
2019-01-14T23:54:47.500Z,63.27
2019-01-14T23:59:50.876Z,63.25
